Time;durP1;ratioP1;P1;durP2;ratioP2;P2;SDS_P1;SDS_P2;PMS_P1;PMS_P2;Temp;Humidity;BMP_temperature;BMP_pressure;BME280_temperature;BME280_humidity;BME280_pressure;Samples;Min_cycle;Max_cycle;Signal;HPM_P1;HPM_P2
2022/05/10 05:45:33;;;;;;;;;9.67;9.67;;;;;19.98;100.00;101056.88;6268998;22;45563;-87
2022/05/10 05:47:58;;;;;;;;;10.33;10.00;;;;;20.08;100.00;101064.97;6269448;22;45320;-87
2022/05/10 05:50:25;;;;;;;;;9.00;9.00;;;;;20.18;100.00;101073.97;6269784;22;46616;-87
2022/05/10 05:52:52;;;;;;;;;13.67;12.33;;;;;20.29;100.00;101082.09;6269054;22;45398;-87
2022/05/10 05:55:18;;;;;;;;;13.67;12.00;;;;;20.44;100.00;101097.34;6269506;22;45350;-87
2022/05/10 05:57:44;;;;;;;;;12.67;12.67;;;;;20.52;100.00;101089.41;6269715;22;45327;-87
2022/05/10 06:00:13;;;;;;;;;12.33;11.00;;;;;20.62;100.00;101090.38;6270475;22;45302;-86
2022/05/10 06:02:39;;;;;;;;;13.33;9.67;;;;;20.75;100.00;101099.41;6268886;22;45357;-87
2022/05/10 06:05:05;;;;;;;;;16.00;12.67;;;;;20.90;100.00;101101.28;6269631;22;45275;-86
2022/05/10 06:07:31;;;;;;;;;15.67;13.67;;;;;20.96;100.00;101104.03;6270356;22;45525;-85
2022/05/10 06:09:58;;;;;;;;;15.33;12.67;;;;;21.03;100.00;101110.31;6270820;22;45505;-86
2022/05/10 06:12:24;;;;;;;;;12.67;12.67;;;;;21.18;100.00;101125.53;6272169;22;45305;-86
2022/05/10 06:14:49;;;;;;;;;11.33;11.33;;;;;21.28;100.00;101131.88;6271176;22;45445;-85
2022/05/10 06:17:15;;;;;;;;;12.67;11.67;;;;;21.40;100.00;101131.03;6270361;22;45580;-85
2022/05/10 06:19:42;;;;;;;;;12.33;12.00;;;;;21.50;100.00;101137.31;6271103;22;45648;-86
2022/05/10 06:22:09;;;;;;;;;10.00;9.00;;;;;21.58;100.00;101140.03;6268795;22;45478;-86
2022/05/10 06:24:35;;;;;;;;;10.67;10.00;;;;;21.66;100.00;101132.97;6269464;22;45386;-88
2022/05/10 06:27:02;;;;;;;;;12.00;12.00;;;;;21.79;99.76;101142.81;6243278;22;45421;-85
2022/05/10 06:29:29;;;;;;;;;11.00;11.00;;;;;21.87;99.49;101136.66;6271445;22;46633;-86
2022/05/10 06:31:54;;;;;;;;;9.33;9.33;;;;;21.99;99.96;101138.50;6242112;22;45329;-87
2022/05/10 06:34:20;;;;;;;;;13.33;12.00;;;;;22.09;99.30;101135.84;6269450;22;45333;-86
2022/05/10 06:36:45;;;;;;;;;15.00;14.33;;;;;22.25;99.30;101139.47;6271244;22;45391;-86
2022/05/10 06:39:11;;;;;;;;;10.00;10.00;;;;;22.36;98.85;101142.16;6271995;22;46444;-87
2022/05/10 06:41:37;;;;;;;;;12.33;12.00;;;;;22.44;98.61;101142.19;6271186;22;45235;-87
2022/05/10 06:44:04;;;;;;;;;13.00;12.33;;;;;22.53;99.39;101136.84;6272785;22;45274;-87
2022/05/10 06:46:32;;;;;;;;;9.67;9.00;;;;;22.60;98.84;101143.09;6270887;22;45495;-88
2022/05/10 06:48:58;;;;;;;;;12.00;11.00;;;;;22.68;99.00;101142.22;6242831;22;48233;-87
2022/05/10 06:51:24;;;;;;;;;9.67;9.67;;;;;22.75;99.46;101142.28;6269735;22;45303;-87
2022/05/10 06:53:51;;;;;;;;;12.00;11.00;;;;;22.83;99.96;101126.19;6242947;22;45447;-88
2022/05/10 06:56:17;;;;;;;;;12.00;11.00;;;;;22.91;99.54;101131.53;6242744;22;45317;-87
2022/05/10 06:58:43;;;;;;;;;13.67;13.00;;;;;22.98;99.63;101132.44;6244462;22;46239;-87
2022/05/10 07:01:12;;;;;;;;;14.67;14.67;;;;;23.07;98.97;101136.88;6270495;22;45412;-87
2022/05/10 07:03:55;;;;;;;;;13.00;11.67;;;;;23.16;97.76;101152.97;6266373;22;45391;-87
2022/05/10 07:06:25;;;;;;;;;16.00;13.67;;;;;23.25;97.99;101152.03;6269076;22;45327;-87
2022/05/10 07:08:51;;;;;;;;;13.67;12.67;;;;;23.28;97.60;101151.16;6243258;22;47318;-86
2022/05/10 07:11:16;;;;;;;;;12.33;11.67;;;;;23.31;98.24;101135.97;6270974;22;45456;-87
2022/05/10 07:13:42;;;;;;;;;12.00;11.00;;;;;23.37;97.63;101143.13;6244390;22;45466;-87
2022/05/10 07:16:08;;;;;;;;;12.33;11.00;;;;;23.37;98.06;101132.41;6242335;22;45516;-87
2022/05/10 07:18:33;;;;;;;;;15.00;12.67;;;;;23.44;97.25;101144.88;6242905;22;47580;-86
2022/05/10 07:20:59;;;;;;;;;12.33;11.33;;;;;23.44;96.20;101160.97;6242121;22;46173;-87
2022/05/10 07:23:29;;;;;;;;;11.00;10.33;;;;;23.57;95.78;101169.00;6242174;22;45346;-87
2022/05/10 07:25:55;;;;;;;;;13.67;13.00;;;;;23.63;95.56;101165.41;6271271;22;45354;-90
2022/05/10 07:28:20;;;;;;;;;12.33;12.00;;;;;23.72;95.44;101161.81;6271550;22;45904;-92
2022/05/10 07:30:46;;;;;;;;;13.33;11.33;;;;;23.83;95.64;101176.06;6244290;22;45554;-89
2022/05/10 07:33:11;;;;;;;;;11.00;11.00;;;;;23.87;95.78;101169.78;6244502;22;45382;-91
2022/05/10 07:38:20;;;;;;;;;15.33;12.67;;;;;23.84;94.76;101174.25;6272517;22;45540;-89
2022/05/10 07:40:49;;;;;;;;;14.00;12.33;;;;;23.79;94.62;101182.31;6274256;22;45309;-90
2022/05/10 07:43:15;;;;;;;;;11.67;11.00;;;;;23.66;94.32;101177.00;6244611;22;45358;-88
2022/05/10 07:45:44;;;;;;;;;12.33;11.67;;;;;23.58;94.30;101177.94;6273136;22;45465;-91
2022/05/10 07:48:09;;;;;;;;;9.00;9.00;;;;;23.51;94.02;101175.25;6271112;22;45661;-90
2022/05/10 07:50:34;;;;;;;;;13.33;9.67;;;;;23.51;94.29;101175.25;6241972;22;45435;-90
2022/05/10 07:53:06;;;;;;;;;11.33;11.00;;;;;23.60;93.97;101177.03;6270726;22;45288;-90
2022/05/10 07:55:35;;;;;;;;;11.00;10.33;;;;;23.66;94.41;101173.41;6271151;22;45270;-91
2022/05/10 07:58:00;;;;;;;;;13.00;12.33;;;;;23.78;94.22;101180.56;6243475;22;48378;-87
2022/05/10 08:00:26;;;;;;;;;11.67;11.00;;;;;23.94;93.93;101180.50;6271975;22;45272;-89
2022/05/10 08:02:51;;;;;;;;;9.67;9.00;;;;;24.11;93.96;101175.97;6243724;22;45739;-88
2022/05/10 08:05:22;;;;;;;;;12.33;12.33;;;;;24.25;94.00;101192.88;6270809;22;45453;-87
2022/05/10 08:07:48;;;;;;;;;11.33;11.00;;;;;24.27;93.82;101194.69;6270908;22;46371;-86
2022/05/10 08:10:17;;;;;;;;;11.33;10.33;;;;;24.31;94.00;101198.22;6243391;22;45496;-87
2022/05/10 08:12:43;;;;;;;;;10.00;10.00;;;;;24.31;93.59;101187.50;6244293;22;45584;-88
2022/05/10 08:15:10;;;;;;;;;13.00;12.33;;;;;24.46;93.92;101191.03;6271285;22;45355;-88
2022/05/10 08:17:35;;;;;;;;;12.00;12.00;;;;;24.63;94.42;101199.84;6241424;22;47544;-89
2022/05/10 08:20:01;;;;;;;;;14.33;12.33;;;;;24.65;93.46;101202.50;6242930;22;45334;-88
2022/05/10 08:22:26;;;;;;;;;12.00;12.00;;;;;24.61;92.94;101201.63;6243541;22;45755;-90
2022/05/10 08:24:51;;;;;;;;;11.00;10.00;;;;;24.57;92.87;101202.56;6243718;22;45421;-90
2022/05/10 08:27:17;;;;;;;;;11.33;11.33;;;;;24.65;92.93;101199.84;6272974;22;45440;-90
2022/05/10 08:29:43;;;;;;;;;11.33;9.00;;;;;24.83;93.11;101205.97;6245051;22;45311;-91
2022/05/10 08:32:09;;;;;;;;;10.33;10.33;;;;;24.97;92.80;101200.50;6243253;22;45612;-89
2022/05/10 08:34:35;;;;;;;;;11.00;10.00;;;;;25.09;92.66;101202.22;6243206;22;45443;-88
2022/05/10 08:37:04;;;;;;;;;13.00;11.00;;;;;25.14;93.13;101194.13;6241984;22;47878;-90
2022/05/10 08:39:29;;;;;;;;;10.67;9.67;;;;;25.17;92.58;101208.44;6270442;22;45536;-88
2022/05/10 08:42:02;;;;;;;;;11.00;10.00;;;;;25.20;92.23;101213.75;6242740;22;45345;-84
2022/05/10 08:44:32;;;;;;;;;12.00;12.00;;;;;25.21;91.82;101211.97;6270061;22;45250;-85
2022/05/10 08:47:03;;;;;;;;;11.67;10.33;;;;;25.32;92.33;101203.81;6241225;22;46888;-87
2022/05/10 08:49:35;;;;;;;;;12.33;10.67;;;;;25.61;91.72;101210.72;6270097;22;45370;-88
2022/05/10 08:52:01;;;;;;;;;12.00;10.33;;;;;25.95;92.20;101197.81;6270492;22;45369;-85
2022/05/10 08:54:29;;;;;;;;;13.00;11.67;;;;;26.30;90.77;101218.00;6243793;22;45336;-87
2022/05/10 08:56:58;;;;;;;;;8.67;8.67;;;;;26.64;90.64;101227.44;6270777;22;45775;-87
2022/05/10 08:59:47;;;;;;;;;11.67;10.67;;;;;26.94;89.14;101253.00;6272897;22;45486;-86
2022/05/10 09:02:35;;;;;;;;;11.00;10.00;;;;;27.20;87.82;101268.81;6286168;22;45590;-87
2022/05/10 09:05:06;;;;;;;;;11.00;10.00;;;;;27.46;87.37;101274.66;6282191;22;45366;-83
2022/05/10 09:07:38;;;;;;;;;9.33;9.33;;;;;27.78;87.09;101275.00;6273365;22;45459;-84
2022/05/10 09:10:11;;;;;;;;;12.67;10.00;;;;;28.13;86.92;101274.34;6271702;22;45259;-86
2022/05/10 09:12:46;;;;;;;;;10.00;10.00;;;;;28.44;84.88;101292.59;6244247;22;45270;-86
2022/05/10 09:15:13;;;;;;;;;12.33;9.00;;;;;28.64;84.76;101296.72;6273557;22;45468;-87
2022/05/10 09:17:39;;;;;;;;;10.67;9.33;;;;;28.77;84.39;101303.63;6271458;22;45483;-87
2022/05/10 09:20:07;;;;;;;;;10.67;10.67;;;;;28.88;84.59;101302.47;6272165;22;45305;-87
2022/05/10 09:23:02;;;;;;;;;11.67;11.00;;;;;29.04;83.43;101321.03;6243228;22;45390;-86
2022/05/10 09:25:39;;;;;;;;;10.33;9.67;;;;;29.14;80.72;101344.25;6242787;22;45460;-86
2022/05/10 09:28:31;;;;;;;;;11.33;10.33;;;;;29.29;80.85;101339.38;6268964;22;45380;-86
2022/05/10 09:37:13;;;;;;;;;10.67;10.67;;;;;29.86;79.50;101344.31;6264930;22;45710;-88
2022/05/10 09:39:46;;;;;;;;;12.67;11.67;;;;;30.04;79.09;101340.22;6268766;22;46415;-90
2022/05/10 09:42:24;;;;;;;;;13.67;9.00;;;;;30.39;78.07;101358.22;6268965;22;45350;-89
2022/05/10 09:44:58;;;;;;;;;10.67;10.00;;;;;30.80;76.43;101376.88;6258372;22;45358;-90
2022/05/10 09:47:24;;;;;;;;;8.33;8.33;;;;;31.04;76.45;101377.09;6266935;22;45460;-90
2022/05/10 09:49:49;;;;;;;;;11.00;10.33;;;;;31.34;75.25;101382.47;6267404;22;47339;-90
2022/05/10 09:52:21;;;;;;;;;8.67;7.67;;;;;31.59;73.14;101399.78;6269279;22;45358;-90
2022/05/10 09:54:51;;;;;;;;;8.67;8.00;;;;;31.87;73.28;101409.72;6269617;22;45319;-89
2022/05/10 09:57:32;;;;;;;;;13.33;8.67;;;;;33.88;74.98;101393.09;6271178;22;45369;-89
2022/05/10 09:59:57;;;;;;;;;9.00;9.00;;;;;35.40;70.72;101462.56;6269535;22;45479;-88
2022/05/10 10:02:37;;;;;;;;;10.67;10.67;;;;;35.75;68.88;101478.13;6266676;22;45769;-88
2022/05/10 10:05:25;;;;;;;;;8.00;6.33;;;;;35.68;66.50;101484.84;6267841;22;45353;-89
2022/05/10 10:07:56;;;;;;;;;7.33;7.00;;;;;36.00;67.03;101465.09;6266132;22;45565;-86
2022/05/10 10:10:28;;;;;;;;;8.00;7.00;;;;;37.10;65.30;101472.97;6266926;22;47094;-88
2022/05/10 10:12:53;;;;;;;;;8.00;8.00;;;;;38.48;66.03;101475.91;6268605;22;45257;-88
2022/05/10 10:15:37;;;;;;;;;8.33;8.33;;;;;40.48;64.45;101473.88;6267097;22;45578;-89
2022/05/10 10:18:09;;;;;;;;;5.67;5.67;;;;;42.23;61.59;101487.63;6267183;22;45952;-89
2022/05/10 10:20:51;;;;;;;;;6.67;6.33;;;;;43.40;57.93;101491.13;6267658;22;47897;-89
2022/05/10 10:23:29;;;;;;;;;9.00;8.00;;;;;43.57;54.29;101496.25;6269559;22;45607;-88
2022/05/10 10:26:00;;;;;;;;;7.67;7.33;;;;;44.34;50.96;101504.44;6267791;22;45401;-89
2022/05/10 10:28:42;;;;;;;;;6.00;6.00;;;;;45.60;52.77;101516.25;6268008;22;45518;-90
2022/05/10 10:31:20;;;;;;;;;8.67;8.33;;;;;46.93;50.74;101504.63;6270021;22;45392;-89
2022/05/10 10:34:12;;;;;;;;;7.67;7.67;;;;;48.27;48.36;101517.94;6268327;22;45436;-92
2022/05/10 10:36:46;;;;;;;;;5.33;5.33;;;;;49.28;46.66;101522.09;6260542;22;45293;-90
2022/05/10 10:39:22;;;;;;;;;8.67;6.33;;;;;50.00;44.66;101516.03;6273220;22;45580;-89
2022/05/10 10:41:54;;;;;;;;;6.00;6.00;;;;;50.62;43.02;101496.03;6270072;22;45472;-91
2022/05/10 10:44:24;;;;;;;;;5.67;5.00;;;;;51.08;41.95;101517.66;6269442;22;45338;-90
2022/05/10 10:46:58;;;;;;;;;7.33;7.33;;;;;51.16;41.06;101516.78;6268784;22;45366;-92
2022/05/10 10:49:32;;;;;;;;;6.00;5.00;;;;;51.75;39.93;101519.16;6270789;22;45171;-89
2022/05/10 10:51:58;;;;;;;;;7.33;6.33;;;;;52.12;37.09;101527.72;6269266;22;45516;-89
2022/05/10 10:54:27;;;;;;;;;5.00;5.00;;;;;52.47;38.82;101517.94;6269767;22;45669;-90
2022/05/10 10:57:16;;;;;;;;;6.00;6.00;;;;;52.85;35.37;101508.53;6269935;22;45430;-93
2022/05/10 10:59:53;;;;;;;;;6.67;6.00;;;;;53.20;38.41;101505.06;6270092;22;45487;-89
2022/05/10 11:02:50;;;;;;;;;6.67;6.67;;;;;50.95;35.27;101509.03;6269530;22;46497;-92
2022/05/10 11:05:34;;;;;;;;;5.67;5.67;;;;;50.33;36.30;101495.63;6270366;22;45421;-90
2022/05/10 11:08:26;;;;;;;;;7.00;7.00;;;;;51.19;36.67;101485.66;6243772;22;45441;-89
2022/05/10 11:11:11;;;;;;;;;6.00;6.00;;;;;51.89;36.36;101481.09;6243740;22;45378;-93
2022/05/10 11:13:46;;;;;;;;;6.67;5.00;;;;;52.74;36.40;101479.97;6244390;22;47572;-91
2022/05/10 11:16:30;;;;;;;;;5.00;5.00;;;;;53.32;35.65;101487.75;6270889;22;45323;-92
2022/05/10 11:19:04;;;;;;;;;8.67;7.33;;;;;53.33;34.87;101479.13;6270169;22;45467;-91
2022/05/10 11:22:03;;;;;;;;;7.00;7.00;;;;;52.33;34.14;101474.88;6271568;22;45619;-90
2022/05/10 11:24:46;;;;;;;;;5.67;5.67;;;;;51.65;35.31;101460.66;6270789;22;47365;-92
2022/05/10 11:27:11;;;;;;;;;8.67;7.00;;;;;50.83;34.62;101480.63;6269273;22;45485;-90
2022/05/10 11:29:50;;;;;;;;;4.00;4.00;;;;;49.15;34.65;101469.63;6242579;22;45425;-91
2022/05/10 11:32:48;;;;;;;;;6.00;6.00;;;;;47.75;35.37;101475.13;6236834;22;45430;-92
2022/05/10 11:35:13;;;;;;;;;6.00;6.00;;;;;46.92;35.43;101473.22;6272134;22;45367;-91
2022/05/10 11:37:56;;;;;;;;;6.33;6.33;;;;;46.75;35.70;101472.16;6241914;22;45347;-91
2022/05/10 11:40:42;;;;;;;;;6.67;6.67;;;;;46.18;36.94;101465.59;6270438;22;45353;-91
2022/05/10 11:43:46;;;;;;;;;6.33;6.00;;;;;44.84;36.75;101457.63;6242732;22;45504;-91
2022/05/10 11:46:41;;;;;;;;;7.00;7.00;;;;;43.68;38.33;101460.28;6241581;22;48050;-92
2022/05/10 11:49:25;;;;;;;;;5.67;5.67;;;;;42.72;39.05;101453.44;6242557;22;45502;-92
2022/05/10 11:52:18;;;;;;;;;6.33;6.33;;;;;41.21;39.37;101423.72;6268498;22;45350;-93
2022/05/10 11:55:08;;;;;;;;;7.00;6.00;;;;;40.55;41.24;101437.56;6244338;22;45420;-89
2022/05/10 11:57:34;;;;;;;;;7.67;7.67;;;;;41.26;41.14;101428.88;6241854;22;47268;-92
2022/05/10 12:00:30;;;;;;;;;6.33;6.33;;;;;40.83;41.23;101431.03;6269676;22;45289;-91
2022/05/10 12:03:11;;;;;;;;;6.00;6.00;;;;;40.50;41.52;101427.88;6270682;22;45313;-90
2022/05/10 12:05:41;;;;;;;;;7.33;6.00;;;;;40.54;41.66;101421.19;6270575;22;45315;-91
2022/05/10 12:08:15;;;;;;;;;5.00;5.00;;;;;40.02;41.83;101422.06;6268576;22;47950;-90
2022/05/10 12:10:44;;;;;;;;;6.00;6.00;;;;;40.80;43.35;101423.06;6271505;22;45314;-93
2022/05/10 12:21:19;;;;;;;;;5.00;5.00;;;;;41.81;41.53;101414.56;6245525;22;45412;-94
2022/05/10 12:22:16;;;;;;;;;4.33;3.67;;;;;44.37;39.19;101406.47;6267700;22;45353;-91
2022/05/10 12:24:44;;;;;;;;;7.00;6.00;;;;;44.89;39.28;101408.25;6269874;22;45290;-90
2022/05/10 12:27:10;;;;;;;;;5.33;4.67;;;;;45.85;38.42;101399.44;6242969;22;45664;-94
2022/05/10 12:30:04;;;;;;;;;6.00;6.00;;;;;47.50;39.07;101392.38;6272675;22;46422;-90
2022/05/10 12:32:53;;;;;;;;;3.00;3.00;;;;;49.58;37.85;101390.59;6259552;22;45652;-89
2022/05/10 12:35:32;;;;;;;;;8.00;6.33;;;;;51.83;37.10;101393.22;6271172;22;45322;-90
2022/05/10 12:38:00;;;;;;;;;5.67;5.67;;;;;52.68;35.57;101391.13;6271697;22;45678;-90
2022/05/10 12:40:55;;;;;;;;;6.33;6.33;;;;;52.40;34.57;101391.84;6271709;22;46392;-90
2022/05/10 12:43:40;;;;;;;;;5.00;5.00;;;;;51.45;34.10;101394.06;6245032;22;45519;-90
2022/05/10 12:46:24;;;;;;;;;5.33;5.33;;;;;49.66;34.70;101389.75;6272382;22;45282;-90
2022/05/10 12:49:33;;;;;;;;;6.00;6.00;;;;;48.39;35.39;101384.97;6247298;22;44927;-90
2022/05/10 12:52:22;;;;;;;;;7.00;7.00;;;;;49.42;36.29;101380.34;6179364;23;47076;-91
2022/05/10 12:54:53;;;;;;;;;5.33;4.67;;;;;50.99;36.25;101386.59;6178616;23;45368;-91
2022/05/10 12:57:42;;;;;;;;;7.00;7.00;;;;;52.76;34.26;101378.06;6150388;23;45441;-92
2022/05/10 13:00:12;;;;;;;;;5.33;5.33;;;;;54.22;33.50;101374.03;6175815;23;45694;-91
2022/05/10 13:02:51;;;;;;;;;5.00;5.00;;;;;52.75;32.76;101363.19;6175471;23;45456;-91
2022/05/10 13:05:22;;;;;;;;;5.00;5.00;;;;;51.65;34.35;101365.59;6151431;23;45359;-90
2022/05/10 13:08:11;;;;;;;;;7.67;6.67;;;;;53.23;33.34;101367.34;6150698;23;45711;-90
2022/05/10 13:10:37;;;;;;;;;6.00;5.00;;;;;55.03;33.41;101359.34;6175588;23;45372;-91
2022/05/10 13:13:22;;;;;;;;;7.00;7.00;;;;;55.12;31.98;101364.78;6149462;23;47213;-92
2022/05/10 13:15:48;;;;;;;;;6.00;6.00;;;;;56.02;32.42;101364.44;6151246;23;45360;-91
2022/05/10 13:18:24;;;;;;;;;6.33;6.33;;;;;56.65;32.29;101356.31;6174740;23;45828;-91
2022/05/10 13:20:52;;;;;;;;;5.00;5.00;;;;;55.48;30.95;101368.22;6149759;23;45390;-91
2022/05/10 13:23:19;;;;;;;;;6.00;6.00;;;;;55.50;31.66;101361.28;6173169;23;47149;-91
2022/05/10 13:25:47;;;;;;;;;5.00;5.00;;;;;56.89;30.29;101350.06;6153054;23;45428;-90
2022/05/10 13:28:15;;;;;;;;;4.33;4.33;;;;;57.65;29.82;101349.19;6204883;22;45233;-92
2022/05/10 13:30:44;;;;;;;;;6.00;6.00;;;;;58.50;29.10;101356.16;6270093;22;45300;-92
2022/05/10 13:33:33;;;;;;;;;8.00;5.67;;;;;59.45;28.72;101345.22;6240960;22;47251;-91
2022/05/10 13:36:06;;;;;;;;;4.00;4.00;;;;;56.83;28.45;101341.44;6242255;22;45468;-90
2022/05/10 13:38:40;;;;;;;;;4.00;4.00;;;;;55.49;29.67;101328.59;6271502;22;45254;-91
2022/05/10 13:41:09;;;;;;;;;9.00;6.67;;;;;57.18;30.10;101325.13;6270893;22;45296;-92
2022/05/10 13:43:54;;;;;;;;;5.67;5.67;;;;;56.05;29.39;101330.22;6270658;22;45986;-89
2022/05/10 13:46:19;;;;;;;;;3.00;3.00;;;;;53.62;29.57;101324.94;6240666;22;45896;-90
2022/05/10 13:48:58;;;;;;;;;6.67;5.00;;;;;51.04;29.93;101319.84;6242323;22;45437;-90
2022/05/10 13:51:31;;;;;;;;;5.67;5.67;;;;;51.94;32.19;101309.88;6243045;22;45412;-91
2022/05/10 13:54:08;;;;;;;;;5.00;5.00;;;;;54.47;31.39;101311.72;6271262;22;45370;-92
2022/05/10 13:56:39;;;;;;;;;5.67;5.67;;;;;56.52;31.04;101311.34;6271005;22;45290;-91
2022/05/10 13:59:06;;;;;;;;;6.00;6.00;;;;;57.69;29.64;101318.53;6244723;22;45351;-91
2022/05/10 14:01:47;;;;;;;;;5.00;5.00;;;;;58.70;29.24;101319.09;6244177;22;45495;-88
2022/05/10 14:04:16;;;;;;;;;7.00;5.00;;;;;59.11;28.70;101326.03;6243810;22;47410;-90
2022/05/10 14:07:03;;;;;;;;;6.00;5.00;;;;;57.53;27.84;101312.38;6271667;22;45473;-90
2022/05/10 14:09:40;;;;;;;;;7.00;7.00;;;;;56.44;29.00;101296.44;6271607;22;45386;-91
2022/05/10 14:12:33;;;;;;;;;7.00;7.00;;;;;56.82;28.88;101300.28;6273240;22;44758;-91
2022/05/10 14:15:27;;;;;;;;;6.00;6.00;;;;;57.30;28.44;101310.28;6268758;22;46582;-94
2022/05/10 14:18:03;;;;;;;;;5.67;4.67;;;;;57.24;28.26;101298.00;6244520;22;45333;-93
2022/05/10 14:20:33;;;;;;;;;4.33;4.33;;;;;56.81;28.43;101312.63;6244994;22;45382;-92
2022/05/10 14:23:01;;;;;;;;;4.67;4.67;;;;;56.10;27.61;101302.25;6243704;22;45483;-92
2022/05/10 14:25:31;;;;;;;;;6.00;6.00;;;;;54.88;28.40;101299.66;6242232;22;47379;-91
2022/05/10 14:28:05;;;;;;;;;6.67;6.33;;;;;55.52;28.93;101287.09;6244506;22;45785;-91
2022/05/10 14:30:38;;;;;;;;;6.00;6.00;;;;;56.25;28.85;101285.09;6244195;22;45289;-85
2022/05/10 14:33:14;;;;;;;;;4.33;4.33;;;;;56.35;28.77;101281.75;6271362;22;45487;-90
2022/05/10 14:35:40;;;;;;;;;6.00;6.00;;;;;54.31;28.76;101268.03;6271189;22;45608;-90
2022/05/10 14:38:12;;;;;;;;;6.00;6.00;;;;;52.51;29.33;101273.75;6239945;22;45573;-90
2022/05/10 14:40:41;;;;;;;;;6.33;6.33;;;;;50.17;29.93;101268.59;6270178;22;45453;-89
2022/05/10 14:43:24;;;;;;;;;6.00;6.00;;;;;48.96;30.84;101267.50;6241454;22;45305;-90
2022/05/10 14:45:51;;;;;;;;;7.00;6.00;;;;;47.48;31.49;101263.84;6272405;22;45362;-91
2022/05/10 14:48:26;;;;;;;;;5.00;5.00;;;;;45.94;32.58;101264.56;6268368;22;45396;-89
2022/05/10 14:50:55;;;;;;;;;6.00;6.00;;;;;44.76;33.00;101248.00;6269835;22;45244;-87
2022/05/10 14:53:21;;;;;;;;;5.67;5.67;;;;;43.71;34.46;101251.88;6240197;22;45376;-87
2022/05/10 14:56:01;;;;;;;;;4.00;4.00;;;;;42.52;35.19;101262.88;6241992;22;46593;-85
2022/05/10 14:58:31;;;;;;;;;8.33;7.33;;;;;41.39;36.03;101250.66;6241331;22;45282;-88
2022/05/10 15:01:07;;;;;;;;;5.33;4.33;;;;;40.53;36.99;101247.06;6240956;22;45334;-89
2022/05/10 15:03:35;;;;;;;;;5.67;5.67;;;;;39.81;37.56;101244.03;6268103;22;45556;-89
2022/05/10 15:06:00;;;;;;;;;6.00;6.00;;;;;39.24;38.40;101238.78;6242252;22;46937;-89
2022/05/10 15:08:26;;;;;;;;;6.00;6.00;;;;;38.71;38.59;101236.88;6242019;22;45439;-92
2022/05/10 15:10:55;;;;;;;;;5.00;5.00;;;;;38.08;39.36;101239.03;6241424;22;53100;-93
2022/05/10 15:13:22;;;;;;;;;5.00;5.00;;;;;37.43;39.26;101235.75;6270828;22;45470;-90
2022/05/10 15:16:01;;;;;;;;;5.67;5.67;;;;;36.87;39.95;101237.19;6243127;22;48232;-91
2022/05/10 15:21:19;;;;;;;;;5.67;5.00;;;;;35.88;41.61;101226.31;6271144;22;45451;-91
2022/05/10 15:23:45;;;;;;;;;7.33;6.00;;;;;35.49;42.15;101225.66;6270947;22;45274;-92
2022/05/10 15:26:19;;;;;;;;;7.00;5.00;;;;;35.15;43.03;101211.91;6243038;22;47412;-93
2022/05/10 15:28:47;;;;;;;;;7.33;7.33;;;;;34.85;43.59;101211.56;6271684;22;45202;-90
2022/05/10 15:31:13;;;;;;;;;8.33;7.67;;;;;34.54;44.34;101215.78;6241535;22;45401;-89
2022/05/10 15:33:38;;;;;;;;;3.67;3.67;;;;;34.19;44.61;101208.34;6267582;22;45599;-89
2022/05/10 15:36:06;;;;;;;;;7.33;7.33;;;;;33.84;45.20;101200.91;6270025;22;45906;-90
2022/05/10 15:38:32;;;;;;;;;7.33;7.33;;;;;33.45;45.16;101204.38;6242126;22;45377;-90
2022/05/10 15:40:57;;;;;;;;;5.00;5.00;;;;;33.10;45.68;101193.19;6242180;22;45358;-89
2022/05/10 15:43:23;;;;;;;;;7.00;7.00;;;;;32.87;46.00;101200.50;6270165;22;45400;-89
2022/05/10 15:45:48;;;;;;;;;5.00;5.00;;;;;32.70;46.56;101193.97;6269912;22;59235;-89
2022/05/10 15:48:18;;;;;;;;;7.00;7.00;;;;;32.64;47.31;101186.03;6241808;22;45756;-89
2022/05/10 15:50:44;;;;;;;;;6.33;6.33;;;;;32.60;47.79;101187.97;6270193;22;45609;-89
2022/05/10 15:53:09;;;;;;;;;6.00;6.00;;;;;32.63;47.76;101184.25;6241254;22;45463;-89
2022/05/10 15:55:37;;;;;;;;;7.00;7.00;;;;;32.65;48.31;101177.81;6242499;22;46995;-89
2022/05/10 15:58:02;;;;;;;;;5.00;5.00;;;;;32.69;48.23;101180.44;6241512;22;45496;-89
2022/05/10 16:00:28;;;;;;;;;7.33;6.33;;;;;32.63;48.31;101176.97;6271366;22;45305;-88
2022/05/10 16:02:54;;;;;;;;;7.67;7.67;;;;;32.50;49.04;101181.19;6240814;22;45496;-88
2022/05/10 16:05:19;;;;;;;;;4.67;4.67;;;;;32.35;48.93;101175.41;6242622;22;46111;-89
2022/05/10 16:07:44;;;;;;;;;6.33;6.00;;;;;32.23;49.00;101176.78;6269650;22;45173;-88
2022/05/10 16:10:10;;;;;;;;;6.33;6.33;;;;;32.15;49.30;101181.63;6269031;22;45806;-89
2022/05/10 16:12:39;;;;;;;;;7.00;7.00;;;;;32.08;49.58;101178.25;6241100;22;45658;-89
2022/05/10 16:15:05;;;;;;;;;5.33;5.33;;;;;32.03;49.61;101177.56;6270444;22;46304;-89
2022/05/10 16:17:31;;;;;;;;;5.67;5.00;;;;;31.90;49.02;101170.75;6241080;22;45651;-90
2022/05/10 16:19:57;;;;;;;;;8.33;6.33;;;;;31.80;49.81;101171.19;6242277;22;45383;-89
2022/05/10 16:22:22;;;;;;;;;8.00;6.00;;;;;31.76;50.11;101179.44;6273102;22;46883;-88
2022/05/10 16:24:47;;;;;;;;;7.00;7.00;;;;;31.70;50.49;101173.38;6269898;22;45414;-90
2022/05/10 16:29:57;;;;;;;;;6.33;6.33;;;;;31.67;49.72;101177.06;6270454;22;45381;-89
2022/05/10 16:32:26;;;;;;;;;5.00;5.00;;;;;31.63;49.51;101175.41;6240581;22;45315;-88
2022/05/10 16:34:51;;;;;;;;;4.00;4.00;;;;;31.59;49.53;101166.50;6242216;22;46408;-88
2022/05/10 16:37:17;;;;;;;;;6.00;6.00;;;;;31.54;49.39;101172.06;6242694;22;45285;-88
2022/05/10 16:39:42;;;;;;;;;5.67;5.67;;;;;31.40;50.04;101161.72;6243760;22;45441;-89
2022/05/10 16:42:11;;;;;;;;;8.33;8.33;;;;;31.25;50.92;101156.84;6270975;22;45481;-89
2022/05/10 16:44:38;;;;;;;;;7.67;6.00;;;;;31.14;50.19;101160.81;6270066;22;45840;-89
2022/05/10 16:47:12;;;;;;;;;7.00;6.67;;;;;31.03;51.20;101154.91;6268565;22;45592;-89
2022/05/10 16:49:38;;;;;;;;;6.33;6.33;;;;;30.94;50.77;101145.28;6241754;22;45383;-90
2022/05/10 16:52:06;;;;;;;;;5.67;5.67;;;;;30.88;51.04;101151.75;6241536;22;45313;-90
2022/05/10 16:54:44;;;;;;;;;5.00;4.67;;;;;30.76;51.54;101153.94;6268948;22;45571;-89
2022/05/10 16:57:10;;;;;;;;;5.67;5.67;;;;;30.63;51.67;101137.22;6241666;22;45999;-88
2022/05/10 16:59:37;;;;;;;;;7.33;6.00;;;;;30.59;51.65;101145.50;6269325;22;45345;-89
2022/05/10 17:02:07;;;;;;;;;6.33;6.33;;;;;30.45;51.87;101149.56;6240859;22;45342;-93
2022/05/10 17:04:34;;;;;;;;;4.33;4.33;;;;;30.31;51.98;101144.53;6269308;22;45392;-88
2022/05/10 17:07:00;;;;;;;;;7.00;6.00;;;;;30.17;52.45;101139.56;6241134;22;45537;-89
2022/05/10 17:09:26;;;;;;;;;4.00;4.00;;;;;30.01;52.54;101142.75;6241321;22;45368;-90
2022/05/10 17:11:51;;;;;;;;;8.00;6.33;;;;;29.87;53.93;101133.22;6241882;22;45467;-89
2022/05/10 17:14:17;;;;;;;;;6.33;6.33;;;;;29.78;53.73;101123.59;6269676;22;45314;-88
2022/05/10 17:16:44;;;;;;;;;5.33;3.67;;;;;29.73;54.26;101127.34;6268971;22;45340;-89
2022/05/10 17:19:09;;;;;;;;;6.00;6.00;;;;;29.67;53.96;101133.78;6269766;22;45417;-89
2022/05/10 17:21:36;;;;;;;;;8.00;7.00;;;;;29.56;53.90;101129.59;6240906;22;45468;-89
2022/05/10 17:24:01;;;;;;;;;5.33;5.33;;;;;29.48;55.18;101126.25;6242158;22;47044;-96
2022/05/10 17:26:27;;;;;;;;;6.00;4.67;;;;;29.36;55.91;101122.03;6252635;22;45588;-95
2022/05/10 17:31:22;;;;;;;;;5.67;4.33;;;;;29.18;54.17;101126.13;6271113;22;45340;-94
2022/05/10 17:33:48;;;;;;;;;4.67;4.67;;;;;29.10;54.83;101124.53;6267055;22;46309;-87
2022/05/10 17:36:14;;;;;;;;;4.00;4.00;;;;;29.05;54.93;101129.16;6241536;22;45261;-87
2022/05/10 17:38:41;;;;;;;;;5.00;5.00;;;;;28.97;54.60;101128.44;6268127;22;45510;-88
2022/05/10 17:41:07;;;;;;;;;5.00;5.00;;;;;28.91;55.00;101134.03;6267731;22;45488;-86
2022/05/10 17:43:37;;;;;;;;;5.33;5.33;;;;;28.80;54.61;101126.19;6240682;22;47156;-88
2022/05/10 17:46:03;;;;;;;;;7.67;7.67;;;;;28.71;54.93;101127.34;6268377;22;45699;-87
2022/05/10 17:48:29;;;;;;;;;5.00;4.00;;;;;28.62;55.14;101131.16;6241757;22;45382;-88